createdAt,value
2023-01-01T00:04:17.361Z,97132.41
2023-01-01T00:14:19.674Z,97150.25
2023-01-01T00:24:21.911Z,97167.72
2023-01-01T00:37:15.078Z,97196.53
2023-01-01T00:47:17.279Z,97233.03
2023-01-01T00:57:19.530Z,97240.56
2023-01-01T01:07:21.726Z,97237.66
2023-01-01T01:17:23.982Z,97247.56
2023-01-01T01:27:26.282Z,97262.06
2023-01-01T01:37:28.977Z,97275.53
2023-01-01T01:47:49.617Z,97282.75
2023-01-01T01:57:51.975Z,97299.69
2023-01-01T02:07:55.447Z,97303.13
2023-01-01T02:18:06.937Z,97334.38
2023-01-01T02:28:32.495Z,97345.94
2023-01-01T02:38:41.781Z,97357.03
2023-01-01T02:48:48.192Z,97383.72
2023-01-01T02:59:24.966Z,97384.03
2023-01-01T03:09:47.896Z,97386.47
2023-01-01T03:19:52.251Z,97385.47
2023-01-01T03:29:58.080Z,97399.50
2023-01-01T03:40:00.407Z,97402.03
2023-01-01T03:50:04.748Z,97415.75
2023-01-01T04:00:16.732Z,97410.97
2023-01-01T04:10:19.375Z,97408.53
2023-01-01T04:20:22.756Z,97405.13
2023-01-01T04:30:25.826Z,97416.13
2023-01-01T04:40:28.090Z,97409.84
2023-01-01T04:50:30.341Z,97419.53
2023-01-01T05:00:33.572Z,97415.34
2023-01-01T05:10:35.824Z,97428.22
2023-01-01T05:20:38.016Z,97442.19
2023-01-01T05:30:40.840Z,97447.53
2023-01-01T05:40:43.025Z,97464.03
2023-01-01T05:50:45.270Z,97465.16
2023-01-01T06:00:47.580Z,97483.66
2023-01-01T06:10:49.839Z,97489.91
2023-01-01T06:20:52.952Z,97497.19
2023-01-01T06:30:55.169Z,97514.44
2023-01-01T06:40:58.836Z,97504.03
2023-01-01T06:51:15.650Z,97507.25
2023-01-01T07:01:20.641Z,97504.34
2023-01-01T07:11:23.505Z,97519.19
2023-01-01T07:21:37.116Z,97517.91
2023-01-01T07:31:41.341Z,97531.47
2023-01-01T07:41:43.582Z,97554.22
2023-01-01T07:51:45.818Z,97547.28
2023-01-01T08:01:48.148Z,97537.19
2023-01-01T08:11:52.983Z,97531.59
2023-01-01T08:21:55.291Z,97519.59
2023-01-01T08:31:57.537Z,97529.25
2023-01-01T08:41:59.708Z,97539.09
2023-01-01T08:52:01.904Z,97532.50
2023-01-01T09:02:04.957Z,97549.94
2023-01-01T09:12:09.426Z,97577.47
2023-01-01T09:22:12.435Z,97551.66
2023-01-01T09:32:14.766Z,97560.66
2023-01-01T09:42:42.518Z,97575.09
2023-01-01T09:53:00.692Z,97581.97
2023-01-01T10:03:41.899Z,97589.72
2023-01-01T10:13:46.216Z,97590.47
2023-01-01T10:24:26.015Z,97584.31
2023-01-01T10:34:29.371Z,97590.47
2023-01-01T10:44:34.728Z,97596.41
2023-01-01T10:54:39.269Z,97597.94
2023-01-01T11:04:42.206Z,97600.44
2023-01-01T11:14:51.428Z,97602.19
2023-01-01T11:25:01.854Z,97605.94
2023-01-01T11:35:06.921Z,97585.13
2023-01-01T11:45:26.226Z,97582.78
2023-01-01T11:55:42.733Z,97583.81
2023-01-01T12:06:01.506Z,97581.84
2023-01-01T12:16:37.908Z,97566.81
2023-01-01T12:27:23.591Z,97571.28
2023-01-01T12:37:32.082Z,97572.78
2023-01-01T12:48:12.672Z,97566.91
2023-01-01T12:58:22.098Z,97559.03
2023-01-01T13:08:24.384Z,97551.13
2023-01-01T13:18:35.155Z,97551.22
2023-01-01T13:28:37.448Z,97546.25
2023-01-01T13:38:53.333Z,97552.38
2023-01-01T13:49:01.774Z,97517.28
2023-01-01T13:59:29.094Z,97535.63
2023-01-01T14:09:31.310Z,97564.72
2023-01-01T14:19:34.495Z,97553.06
2023-01-01T14:29:36.908Z,97574.19
2023-01-01T14:39:39.117Z,97577.03
2023-01-01T14:49:42.781Z,97593.09
2023-01-01T14:59:54.514Z,97603.03
2023-01-01T15:10:02.512Z,97630.28
2023-01-01T15:20:06.505Z,97640.28
2023-01-01T15:30:26.686Z,97649.09
2023-01-01T15:40:28.876Z,97666.69
2023-01-01T15:50:35.590Z,97685.91
2023-01-01T16:00:41.034Z,97688.22
2023-01-01T16:10:43.696Z,97700.28
2023-01-01T16:20:46.586Z,97703.59
2023-01-01T16:30:48.907Z,97683.09
2023-01-01T16:40:51.597Z,97705.78
2023-01-01T16:50:53.825Z,97705.22
2023-01-01T17:01:01.153Z,97710.19
2023-01-01T17:11:12.048Z,97716.25
2023-01-01T17:21:14.428Z,97724.44
2023-01-01T17:31:20.294Z,97724.38
2023-01-01T17:41:23.176Z,97749.28
2023-01-01T17:51:26.421Z,97730.88
2023-01-01T18:01:32.132Z,97729.19
2023-01-01T18:11:34.920Z,97724.91
2023-01-01T18:21:37.151Z,97738.47
2023-01-01T18:31:39.740Z,97740.31
2023-01-01T18:42:09.647Z,97739.41
2023-01-01T18:52:23.177Z,97729.53
2023-01-01T19:02:39.062Z,97736.50
2023-01-01T19:12:41.839Z,97747.97
2023-01-01T19:22:44.207Z,97750.47
2023-01-01T19:32:47.430Z,97730.13
2023-01-01T19:42:50.361Z,97721.44
2023-01-01T19:52:52.620Z,97731.97
2023-01-01T20:02:56.042Z,97750.47
2023-01-01T20:12:58.622Z,97736.78
2023-01-01T20:23:01.076Z,97726.34
2023-01-01T20:33:04.098Z,97708.59
2023-01-01T20:43:06.368Z,97719.47
2023-01-01T20:53:08.567Z,97708.69
2023-01-01T21:03:10.813Z,97714.25
2023-01-01T21:13:13.205Z,97716.94
2023-01-01T21:23:35.775Z,97736.84
2023-01-01T21:40:35.796Z,97723.69
2023-01-01T21:50:41.575Z,97703.56
2023-01-01T22:00:43.766Z,97704.75
2023-01-01T22:10:46.202Z,97702.81
2023-01-01T22:20:48.720Z,97690.69
2023-01-01T22:30:57.679Z,97697.94
2023-01-01T22:41:00.171Z,97680.59
2023-01-01T22:51:07.388Z,97656.13
2023-01-01T23:01:09.826Z,97644.69
2023-01-01T23:11:12.109Z,97630.78
2023-01-01T23:21:24.211Z,97618.41
2023-01-01T23:31:29.286Z,97596.13
2023-01-01T23:41:32.263Z,97592.31
2023-01-01T23:51:35.347Z,97576.03
